Time;durP1;ratioP1;P1;durP2;ratioP2;P2;SDS_P1;SDS_P2;PMS_P1;PMS_P2;Temp;Humidity;BMP_temperature;BMP_pressure;BME280_temperature;BME280_humidity;BME280_pressure;Samples;Min_cycle;Max_cycle;Signal;HPM_P1;HPM_P2
2022/05/12 00:01:58;;;;;;;4.63;3.20;;;;;;;14.56;94.81;98257.50;5062960;28;20029;-69
2022/05/12 00:04:27;;;;;;;4.47;3.20;;;;;;;14.49;94.98;98256.06;5062760;28;20037;-69
2022/05/12 00:06:52;;;;;;;8.70;3.83;;;;;;;14.38;95.79;98258.25;5043901;28;20025;-69
2022/05/12 00:09:18;;;;;;;7.20;3.30;;;;;;;14.45;94.65;98257.06;5050810;28;20032;-69
2022/05/12 00:11:44;;;;;;;9.00;3.58;;;;;;;14.40;95.32;98264.34;5062994;28;20067;-69
2022/05/12 00:14:10;;;;;;;5.20;3.28;;;;;;;14.42;95.06;98267.78;5063261;28;20024;-69
2022/05/12 00:16:35;;;;;;;8.02;3.67;;;;;;;14.32;95.45;98263.78;5063172;28;20208;-69
2022/05/12 00:19:01;;;;;;;3.65;2.90;;;;;;;14.49;94.22;98261.34;5061598;28;20021;-69
2022/05/12 00:21:26;;;;;;;5.22;3.13;;;;;;;14.74;92.95;98277.94;5063126;28;20033;-69
2022/05/12 00:23:58;;;;;;;7.63;3.28;;;;;;;14.66;93.23;98280.03;5062878;28;20032;-69
2022/05/12 00:26:27;;;;;;;10.32;3.22;;;;;;;14.54;94.27;98278.75;5063202;28;20025;-69
2022/05/12 00:28:53;;;;;;;5.25;3.33;;;;;;;14.39;94.62;98281.16;5055473;28;20324;-69
2022/05/12 00:31:20;;;;;;;5.18;3.35;;;;;;;14.34;95.05;98281.31;5043952;28;20097;-69
2022/05/12 00:33:45;;;;;;;6.57;3.72;;;;;;;14.35;94.01;98283.06;5044805;28;20300;-69
2022/05/12 00:36:11;;;;;;;5.53;3.38;;;;;;;14.36;93.70;98294.50;5043913;28;20028;-69
2022/05/12 00:38:37;;;;;;;5.90;3.15;;;;;;;14.40;92.85;98304.06;5044745;28;20092;-69
2022/05/12 00:41:02;;;;;;;4.65;2.60;;;;;;;14.39;93.32;98308.50;5043527;28;20317;-69
2022/05/12 00:43:44;;;;;;;5.00;2.85;;;;;;;14.41;92.89;98305.78;5043607;28;20056;-69
2022/05/12 00:46:13;;;;;;;6.75;2.78;;;;;;;14.43;93.61;98303.97;5043580;28;20333;-69
2022/05/12 00:48:39;;;;;;;6.63;3.55;;;;;;;14.31;92.84;98301.78;5051547;28;20026;-69
2022/05/12 00:51:07;;;;;;;5.13;3.00;;;;;;;14.22;92.36;98302.09;5043494;28;20076;-69
2022/05/12 00:53:34;;;;;;;4.20;2.65;;;;;;;14.15;93.79;98303.28;5043471;28;20028;-69
2022/05/12 00:56:00;;;;;;;6.18;3.08;;;;;;;14.02;94.61;98307.31;5043482;28;20036;-69
2022/05/12 00:58:28;;;;;;;14.38;2.65;;;;;;;13.98;94.76;98306.56;5044611;28;20022;-69
2022/05/12 01:00:53;;;;;;;8.50;3.08;;;;;;;13.93;96.85;98313.81;5045695;28;20332;-69
2022/05/12 01:03:23;;;;;;;8.30;2.97;;;;;;;14.03;95.80;98309.91;5062615;28;20028;-69
2022/05/12 01:05:50;;;;;;;4.57;2.85;;;;;;;14.10;95.80;98326.38;5062391;28;20041;-69
2022/05/12 01:08:17;;;;;;;5.13;2.95;;;;;;;14.19;96.40;98323.41;5052868;28;20076;-69
2022/05/12 01:10:47;;;;;;;5.63;2.67;;;;;;;14.21;96.51;98326.88;5062988;28;20016;-69
2022/05/12 01:13:13;;;;;;;6.20;3.05;;;;;;;14.26;95.83;98333.72;5063250;28;20090;-69
2022/05/12 01:15:53;;;;;;;6.20;3.08;;;;;;;14.37;95.31;98335.97;5065353;28;20329;-69
2022/05/12 01:18:19;;;;;;;4.40;2.58;;;;;;;14.37;95.12;98331.50;5059346;28;20032;-69
2022/05/12 01:20:46;;;;;;;3.05;2.20;;;;;;;14.47;93.79;98338.19;5065976;28;20216;-69
2022/05/12 01:23:37;;;;;;;7.05;2.30;;;;;;;14.58;94.64;98341.28;5066159;28;20055;-69
2022/05/12 01:26:09;;;;;;;3.03;2.17;;;;;;;14.71;94.51;98353.09;5065855;28;20039;-69
2022/05/12 01:28:35;;;;;;;4.97;2.38;;;;;;;14.93;93.97;98358.38;5050689;28;20027;-69
2022/05/12 01:31:01;;;;;;;4.60;2.25;;;;;;;14.97;94.18;98366.16;5046652;28;20064;-69
2022/05/12 01:33:27;;;;;;;1.95;1.75;;;;;;;15.05;94.42;98369.34;5046631;28;20025;-69
2022/05/12 01:35:53;;;;;;;3.58;2.17;;;;;;;15.08;94.92;98378.97;5054690;28;20028;-69
2022/05/12 01:38:18;;;;;;;5.07;1.90;;;;;;;15.16;93.49;98382.19;5059785;28;20088;-69
2022/05/12 01:40:44;;;;;;;3.63;2.00;;;;;;;15.31;91.97;98381.50;5065595;28;20320;-69
2022/05/12 01:43:12;;;;;;;4.32;2.25;;;;;;;15.37;90.89;98378.63;5065761;28;20028;-69
2022/05/12 01:45:37;;;;;;;4.75;2.15;;;;;;;15.41;92.51;98376.72;5065737;28;20017;-69
2022/05/12 01:48:04;;;;;;;5.05;2.03;;;;;;;15.51;90.97;98378.94;5057439;28;20280;-69
2022/05/12 01:50:29;;;;;;;3.53;1.80;;;;;;;15.46;91.27;98380.91;5065677;28;20024;-69
2022/05/12 01:52:55;;;;;;;1.95;1.55;;;;;;;15.59;88.29;98387.41;5063967;28;20021;-69
2022/05/12 01:55:23;;;;;;;3.35;1.70;;;;;;;15.74;86.17;98376.13;5065662;28;20021;-69
2022/05/12 01:57:49;;;;;;;3.08;1.77;;;;;;;15.86;85.21;98386.22;5064442;28;20048;-69
2022/05/12 02:00:18;;;;;;;4.25;1.42;;;;;;;15.99;83.73;98387.41;5065258;28;20031;-69
2022/05/12 02:02:44;;;;;;;4.97;1.25;;;;;;;16.08;83.49;98394.06;5059940;28;20250;-69
2022/05/12 02:05:11;;;;;;;4.30;2.03;;;;;;;16.13;83.87;98395.59;5045856;28;20056;-69
2022/05/12 02:07:40;;;;;;;10.00;1.77;;;;;;;16.15;83.10;98403.47;5057737;28;20112;-69
2022/05/12 02:10:07;;;;;;;6.93;2.47;;;;;;;16.12;83.39;98403.63;5065320;28;20092;-69
2022/05/12 02:12:32;;;;;;;2.05;1.40;;;;;;;16.15;82.66;98409.66;5047917;28;20217;-69
2022/05/12 02:14:57;;;;;;;3.17;1.30;;;;;;;16.14;82.74;98413.22;5046118;28;20029;-69
2022/05/12 02:17:23;;;;;;;3.15;1.83;;;;;;;16.13;82.98;98411.50;5046853;28;20025;-69
2022/05/12 02:19:48;;;;;;;2.35;1.48;;;;;;;16.15;82.48;98419.41;5044631;28;20017;-69
2022/05/12 02:22:13;;;;;;;1.92;1.40;;;;;;;16.08;82.90;98418.84;5045595;28;20021;-69
2022/05/12 02:24:38;;;;;;;6.82;1.63;;;;;;;16.06;82.83;98420.69;5045590;28;20268;-69
2022/05/12 02:27:04;;;;;;;5.40;2.15;;;;;;;16.04;82.98;98422.53;5055365;28;20032;-69
2022/05/12 02:29:29;;;;;;;2.50;1.58;;;;;;;16.00;83.17;98425.41;5065038;28;20027;-69
2022/05/12 02:31:54;;;;;;;3.85;1.40;;;;;;;15.93;83.01;98430.13;5048881;28;20036;-69
2022/05/12 02:34:20;;;;;;;4.32;1.58;;;;;;;15.90;83.50;98435.56;5064098;28;20052;-69
2022/05/12 02:36:59;;;;;;;5.20;1.50;;;;;;;15.82;84.55;98440.34;5063436;28;20096;-69
2022/05/12 02:39:27;;;;;;;2.13;1.17;;;;;;;15.77;84.42;98439.69;5064747;28;20305;-69
2022/05/12 02:41:52;;;;;;;3.25;1.35;;;;;;;15.72;84.99;98446.97;5064907;28;20074;-69
2022/05/12 02:44:17;;;;;;;6.60;1.85;;;;;;;15.67;86.58;98443.66;5064368;28;20040;-69
2022/05/12 02:46:43;;;;;;;4.82;1.65;;;;;;;15.61;87.30;98454.53;5056321;28;20028;-69
2022/05/12 02:49:09;;;;;;;3.55;2.00;;;;;;;15.53;88.79;98453.13;5064551;28;20344;-69
2022/05/12 02:51:34;;;;;;;1.83;1.50;;;;;;;15.45;88.39;98448.16;5064245;28;20017;-69
2022/05/12 02:53:59;;;;;;;2.38;1.60;;;;;;;15.37;89.25;98457.34;5064437;28;20344;-69
2022/05/12 02:56:26;;;;;;;4.65;1.65;;;;;;;15.25;90.34;98456.00;5055662;28;20357;-69
2022/05/12 02:58:51;;;;;;;10.40;1.70;;;;;;;15.14;91.19;98464.41;5048605;28;20029;-69
2022/05/12 03:01:17;;;;;;;2.28;1.67;;;;;;;15.04;90.70;98451.59;5064411;28;20025;-69
2022/05/12 03:03:42;;;;;;;2.63;1.60;;;;;;;14.88;90.52;98458.41;5062553;28;20079;-69
2022/05/12 03:06:07;;;;;;;2.85;1.50;;;;;;;14.79;90.81;98466.72;5045801;28;20022;-69
2022/05/12 03:08:32;;;;;;;2.17;1.58;;;;;;;14.56;90.50;98461.44;5060808;28;20202;-69
2022/05/12 03:10:58;;;;;;;4.70;1.92;;;;;;;14.57;90.34;98468.47;5061632;28;20037;-69
2022/05/12 03:13:23;;;;;;;4.95;1.73;;;;;;;14.52;90.72;98467.75;5050020;28;20017;-69
2022/05/12 03:15:49;;;;;;;4.25;1.77;;;;;;;14.46;91.07;98473.31;5062331;28;20036;-69
2022/05/12 03:18:14;;;;;;;2.65;1.67;;;;;;;14.27;91.47;98466.97;5044568;28;20067;-69
2022/05/12 03:20:40;;;;;;;4.50;2.10;;;;;;;14.20;91.97;98468.06;5044602;28;20083;-69
2022/05/12 03:23:05;;;;;;;10.25;1.80;;;;;;;14.13;92.48;98474.50;5054829;28;20040;-69
2022/05/12 03:25:31;;;;;;;4.80;1.85;;;;;;;13.99;92.75;98477.63;5062536;28;20032;-69
2022/05/12 03:27:57;;;;;;;2.75;1.73;;;;;;;13.86;93.02;98491.34;5055358;28;20025;-69
2022/05/12 03:30:24;;;;;;;3.97;1.80;;;;;;;13.77;93.84;98491.66;5044451;28;20387;-69
2022/05/12 03:32:49;;;;;;;3.03;1.75;;;;;;;13.61;93.62;98491.34;5044682;28;20212;-69
2022/05/12 03:35:16;;;;;;;5.63;1.40;;;;;;;13.58;94.40;98506.44;5045269;28;20093;-69
2022/05/12 03:37:42;;;;;;;2.08;1.42;;;;;;;13.53;94.26;98503.06;5063275;28;20028;-69
2022/05/12 03:40:09;;;;;;;5.45;2.03;;;;;;;13.47;94.42;98508.53;5063913;28;20024;-69
2022/05/12 03:42:34;;;;;;;4.97;1.70;;;;;;;13.44;94.87;98516.59;5054946;28;20448;-69
2022/05/12 03:45:00;;;;;;;3.58;1.10;;;;;;;13.43;95.47;98513.09;5062284;28;20024;-69
2022/05/12 03:47:28;;;;;;;5.35;1.60;;;;;;;13.43;95.84;98522.78;5063347;28;20048;-69
2022/05/12 03:49:57;;;;;;;4.22;1.75;;;;;;;13.50;95.89;98525.19;5062326;28;20025;-69
2022/05/12 03:52:24;;;;;;;3.65;1.70;;;;;;;13.63;96.58;98541.50;5063556;28;20062;-69
2022/05/12 03:54:51;;;;;;;1.98;1.42;;;;;;;13.65;96.96;98539.69;5058372;28;20092;-69
2022/05/12 03:57:18;;;;;;;2.97;1.73;;;;;;;13.74;96.72;98540.25;5057162;28;20025;-69
2022/05/12 03:59:44;;;;;;;1.75;1.42;;;;;;;13.89;96.04;98549.47;5063189;28;20021;-69
2022/05/12 04:02:13;;;;;;;2.67;1.98;;;;;;;14.01;95.80;98555.19;5058183;28;20224;-69
2022/05/12 04:04:40;;;;;;;2.35;1.40;;;;;;;14.14;95.25;98550.34;5062940;28;20075;-69
2022/05/12 04:07:05;;;;;;;2.78;1.60;;;;;;;14.22;94.54;98549.16;5044201;28;20036;-69
2022/05/12 04:09:31;;;;;;;2.28;1.60;;;;;;;14.33;94.38;98562.06;5043973;28;20093;-69
2022/05/12 04:11:56;;;;;;;3.10;1.67;;;;;;;14.42;94.23;98562.59;5045045;28;20423;-69
2022/05/12 04:14:21;;;;;;;2.00;1.45;;;;;;;14.53;93.87;98556.91;5049871;28;20021;-69
2022/05/12 04:16:47;;;;;;;4.63;1.85;;;;;;;14.66;92.36;98560.84;5053567;28;20025;-69
2022/05/12 04:19:14;;;;;;;5.13;1.80;;;;;;;14.69;92.88;98560.72;5042411;28;20281;-69
2022/05/12 04:21:40;;;;;;;2.55;1.73;;;;;;;14.68;93.09;98567.78;5055363;28;20316;-69
2022/05/12 04:24:06;;;;;;;5.68;1.80;;;;;;;14.70;92.34;98567.75;5062505;28;20028;-69
2022/05/12 04:26:38;;;;;;;9.30;2.10;;;;;;;14.72;92.81;98571.22;5043145;28;20022;-69
2022/05/12 04:29:05;;;;;;;4.68;2.05;;;;;;;14.78;92.63;98565.69;5042831;28;20038;-69
2022/05/12 04:31:31;;;;;;;1.73;1.20;;;;;;;14.81;92.66;98577.03;5050511;28;20035;-69
2022/05/12 04:36:41;;;;;;;2.78;1.83;;;;;;;14.75;93.83;98579.88;5054464;28;20063;-69
2022/05/12 04:39:08;;;;;;;2.22;1.63;;;;;;;14.73;93.61;98591.47;5058558;28;20033;-69
2022/05/12 04:41:34;;;;;;;4.95;1.90;;;;;;;14.79;92.91;98588.59;5063487;28;20062;-69
2022/05/12 04:44:00;;;;;;;2.20;1.30;;;;;;;14.83;93.02;98592.88;5063551;28;20024;-69
2022/05/12 04:46:27;;;;;;;3.00;1.50;;;;;;;14.82;93.19;98594.66;5063491;28;20088;-69
2022/05/12 04:48:52;;;;;;;1.83;1.60;;;;;;;14.86;93.16;98600.69;5064060;28;20024;-69
2022/05/12 04:51:19;;;;;;;3.90;2.10;;;;;;;14.89;93.41;98605.88;5067353;28;20074;-69
2022/05/12 04:53:44;;;;;;;2.38;1.48;;;;;;;14.96;93.49;98599.44;5067327;28;20036;-69
2022/05/12 04:56:10;;;;;;;2.00;1.55;;;;;;;15.00;93.55;98604.56;5067315;28;20024;-69
2022/05/12 04:58:35;;;;;;;2.53;1.52;;;;;;;15.09;93.84;98611.31;5067263;28;20031;-69
2022/05/12 05:01:00;;;;;;;3.35;1.90;;;;;;;15.22;92.32;98615.22;5067201;28;20027;-69
2022/05/12 05:03:26;;;;;;;3.03;1.80;;;;;;;15.31;91.51;98620.19;5066953;28;20021;-69
2022/05/12 05:05:51;;;;;;;1.58;1.30;;;;;;;15.45;89.93;98620.56;5066984;28;20032;-69
2022/05/12 05:08:19;;;;;;;2.13;1.50;;;;;;;15.42;90.37;98625.97;5067049;28;20206;-69
2022/05/12 05:10:45;;;;;;;2.75;1.80;;;;;;;15.43;90.77;98625.03;5066991;28;20032;-69
2022/05/12 05:13:10;;;;;;;1.70;1.38;;;;;;;15.66;89.52;98627.66;5067198;28;20014;-69
2022/05/12 05:15:36;;;;;;;3.47;1.90;;;;;;;16.41;87.11;98635.13;5066906;28;20027;-69
2022/05/12 05:18:02;;;;;;;3.45;2.25;;;;;;;17.48;83.16;98645.44;5066859;28;20025;-69
2022/05/12 05:20:29;;;;;;;3.13;1.73;;;;;;;17.44;82.00;98647.41;5066894;28;20044;-69
2022/05/12 05:22:56;;;;;;;3.38;1.75;;;;;;;17.24;81.41;98645.59;5066746;28;20025;-69
2022/05/12 05:25:21;;;;;;;2.97;1.75;;;;;;;17.35;81.72;98646.91;5066687;28;20224;-69
2022/05/12 05:27:48;;;;;;;1.65;1.50;;;;;;;17.33;81.19;98651.44;5066664;28;20028;-69
2022/05/12 05:30:18;;;;;;;6.68;1.63;;;;;;;17.32;80.48;98657.69;5066912;28;20048;-69
2022/05/12 05:32:45;;;;;;;3.45;1.70;;;;;;;17.34;81.51;98666.47;5066856;28;20335;-69
2022/05/12 05:35:12;;;;;;;3.85;1.65;;;;;;;17.48;82.04;98669.38;5065424;28;20059;-69
2022/05/12 05:37:38;;;;;;;2.30;1.25;;;;;;;18.43;78.09;98689.63;5065803;28;20028;-69
2022/05/12 05:40:05;;;;;;;4.43;1.80;;;;;;;19.25;74.91;98684.41;5066717;28;20020;-69
2022/05/12 05:42:31;;;;;;;2.30;1.70;;;;;;;18.80;76.27;98690.34;5066336;28;20021;-69
2022/05/12 05:44:57;;;;;;;4.35;1.67;;;;;;;18.59;75.55;98690.56;5066398;28;20031;-69
2022/05/12 05:47:22;;;;;;;2.15;1.42;;;;;;;18.46;76.78;98684.13;5066600;28;20021;-69
2022/05/12 05:49:47;;;;;;;3.22;1.70;;;;;;;18.45;76.35;98703.75;5066313;28;20317;-69
2022/05/12 05:54:57;;;;;;;1.77;1.40;;;;;;;18.96;78.26;98709.09;5066202;28;20089;-69
2022/05/12 05:57:31;;;;;;;2.15;1.67;;;;;;;19.28;76.81;98705.63;5066134;28;20340;-69
2022/05/12 05:59:58;;;;;;;2.20;1.42;;;;;;;19.04;74.92;98717.56;5065798;28;20248;-69
2022/05/12 06:02:25;;;;;;;1.88;1.38;;;;;;;18.81;75.98;98712.53;5065869;28;20217;-69
2022/05/12 06:04:50;;;;;;;2.03;1.30;;;;;;;18.66;76.03;98719.50;5065858;28;20069;-69
2022/05/12 06:07:15;;;;;;;3.78;1.58;;;;;;;18.39;76.63;98722.69;5065954;28;20190;-69
2022/05/12 06:09:42;;;;;;;2.47;1.42;;;;;;;18.39;78.06;98720.03;5065977;28;20032;-69
2022/05/12 06:12:10;;;;;;;3.00;1.75;;;;;;;18.36;78.31;98730.81;5066133;28;20336;-69
2022/05/12 06:14:36;;;;;;;6.03;1.50;;;;;;;18.02;78.13;98728.91;5066061;28;20021;-69
2022/05/12 06:17:02;;;;;;;3.65;1.63;;;;;;;18.00;78.39;98727.25;5065784;28;20087;-69
2022/05/12 06:19:27;;;;;;;4.75;1.70;;;;;;;17.88;77.84;98738.47;5065765;28;20024;-69
2022/05/12 06:21:52;;;;;;;2.30;1.45;;;;;;;17.79;78.02;98734.47;5065617;28;20016;-69
2022/05/12 06:24:18;;;;;;;2.72;1.50;;;;;;;17.70;79.58;98729.56;5065630;28;20021;-69
2022/05/12 06:26:43;;;;;;;8.02;1.60;;;;;;;17.71;78.61;98739.25;5065531;28;20031;-69
2022/05/12 06:29:08;;;;;;;4.57;1.52;;;;;;;17.69;77.92;98742.94;5065606;28;20073;-69
2022/05/12 06:31:34;;;;;;;1.45;1.00;;;;;;;17.69;78.72;98756.25;5065467;28;20024;-69
2022/05/12 06:33:59;;;;;;;6.22;2.13;;;;;;;17.64;79.00;98744.94;5065698;28;20055;-69
2022/05/12 06:36:25;;;;;;;6.25;1.70;;;;;;;17.64;79.73;98747.59;5065343;28;20028;-69
2022/05/12 06:38:51;;;;;;;2.97;1.13;;;;;;;17.65;78.75;98752.00;5065608;28;20021;-69
2022/05/12 06:41:16;;;;;;;2.05;1.20;;;;;;;17.59;78.88;98752.28;5065211;28;20208;-69
2022/05/12 06:43:45;;;;;;;4.43;1.73;;;;;;;17.62;79.61;98757.47;5065256;28;20325;-69
2022/05/12 06:46:11;;;;;;;4.10;1.42;;;;;;;17.59;80.03;98753.13;5065471;28;20328;-69
2022/05/12 06:48:37;;;;;;;4.55;1.40;;;;;;;17.65;78.66;98762.66;5065101;28;20025;-69
2022/05/12 06:51:02;;;;;;;4.72;1.33;;;;;;;17.60;79.38;98759.31;5065152;28;20027;-69
2022/05/12 06:53:27;;;;;;;4.43;1.10;;;;;;;17.60;78.46;98760.19;5065159;28;20386;-69
2022/05/12 06:55:53;;;;;;;2.40;1.42;;;;;;;17.53;79.87;98763.19;5065032;28;20029;-69
2022/05/12 06:58:18;;;;;;;3.05;1.52;;;;;;;17.58;79.26;98770.03;5064960;28;20025;-69
2022/05/12 07:00:45;;;;;;;4.55;1.30;;;;;;;17.46;78.91;98761.75;5064941;28;20020;-69
2022/05/12 07:03:12;;;;;;;8.35;1.45;;;;;;;17.47;78.72;98768.78;5064941;28;20070;-69
2022/05/12 07:05:39;;;;;;;6.13;1.65;;;;;;;17.39;79.86;98776.19;5064662;28;20036;-69
2022/05/12 07:08:06;;;;;;;2.85;1.25;;;;;;;17.44;79.42;98774.25;5064821;28;20025;-69
2022/05/12 07:10:32;;;;;;;3.75;1.30;;;;;;;17.51;80.78;98771.25;5065029;28;20024;-69
2022/05/12 07:12:57;;;;;;;5.63;1.58;;;;;;;17.58;79.72;98775.34;5064101;28;20247;-69
2022/05/12 07:15:25;;;;;;;2.38;1.48;;;;;;;17.63;79.62;98769.81;5064643;28;20020;-69
2022/05/12 07:17:50;;;;;;;5.90;1.40;;;;;;;17.70;78.49;98771.28;5064607;28;20024;-69
2022/05/12 07:28:32;;;;;;;3.05;1.20;;;;;;;18.10;77.92;98788.00;5064478;28;20224;-69
2022/05/12 07:31:01;;;;;;;5.57;1.38;;;;;;;18.14;76.63;98783.41;5064435;28;20028;-69
2022/05/12 07:33:27;;;;;;;6.80;1.70;;;;;;;18.01;77.61;98792.91;5064326;28;20017;-69
2022/05/12 07:35:53;;;;;;;3.42;1.50;;;;;;;18.08;77.51;98797.88;5064270;28;20021;-69
2022/05/12 07:38:18;;;;;;;4.35;1.50;;;;;;;18.08;76.66;98794.34;5064252;28;20085;-69
2022/05/12 07:40:44;;;;;;;9.07;1.40;;;;;;;18.08;77.45;98792.53;5064233;28;20317;-69
2022/05/12 07:43:09;;;;;;;6.72;1.42;;;;;;;18.07;75.84;98797.94;5064095;28;20021;-69
2022/05/12 07:45:35;;;;;;;4.57;1.52;;;;;;;17.87;77.62;98804.19;5064161;28;20020;-69
2022/05/12 07:48:01;;;;;;;4.63;1.45;;;;;;;17.82;77.33;98803.53;5064165;28;20389;-69
2022/05/12 07:50:28;;;;;;;9.25;1.67;;;;;;;17.89;76.85;98809.44;5064091;28;20021;-69
2022/05/12 07:52:56;;;;;;;3.00;1.10;;;;;;;17.86;77.45;98809.56;5064293;28;20045;-69
2022/05/12 07:55:21;;;;;;;1.73;1.25;;;;;;;18.03;75.97;98817.69;5063998;28;20028;-69
2022/05/12 07:57:46;;;;;;;4.85;1.73;;;;;;;17.96;77.64;98822.41;5063959;28;20087;-69
2022/05/12 08:00:13;;;;;;;5.22;1.27;;;;;;;18.15;78.31;98823.28;5063969;28;20020;-69
2022/05/12 08:02:38;;;;;;;2.08;1.35;;;;;;;18.22;77.19;98814.06;5063711;28;20032;-69
2022/05/12 08:05:05;;;;;;;3.60;1.33;;;;;;;18.16;76.19;98818.84;5063730;28;20336;-69
2022/05/12 08:07:31;;;;;;;5.80;1.63;;;;;;;18.26;76.10;98820.13;5063945;28;20086;-69
2022/05/12 08:09:58;;;;;;;1.88;1.10;;;;;;;18.39;74.50;98831.97;5063854;28;20411;-69
2022/05/12 08:12:24;;;;;;;4.07;1.10;;;;;;;18.57;76.26;98842.59;5063862;28;20025;-69
2022/05/12 08:14:49;;;;;;;6.28;1.70;;;;;;;18.55;74.45;98836.50;5063760;28;20021;-69
2022/05/12 08:17:15;;;;;;;6.82;1.35;;;;;;;18.69;72.30;98833.16;5064002;28;20088;-69
2022/05/12 08:19:40;;;;;;;3.35;1.10;;;;;;;18.71;74.31;98839.28;5063748;28;20095;-69
2022/05/12 08:22:06;;;;;;;5.95;1.63;;;;;;;18.66;72.71;98838.63;5063699;28;20079;-69
2022/05/12 08:24:31;;;;;;;2.50;1.02;;;;;;;18.75;72.49;98847.06;5067218;28;20220;-69
2022/05/12 08:26:56;;;;;;;4.18;1.38;;;;;;;18.81;72.49;98845.88;5067798;28;20020;-69
2022/05/12 08:29:21;;;;;;;4.80;1.13;;;;;;;18.78;72.36;98846.03;5067756;28;20024;-69
2022/05/12 08:31:47;;;;;;;8.13;1.40;;;;;;;18.87;73.70;98845.59;5067745;28;20317;-69
2022/05/12 08:34:12;;;;;;;2.97;1.33;;;;;;;18.99;74.37;98845.00;5067755;28;20275;-69
2022/05/12 08:36:37;;;;;;;3.78;1.92;;;;;;;19.01;73.72;98848.44;5067613;28;20317;-69
2022/05/12 08:39:03;;;;;;;9.95;1.90;;;;;;;19.31;71.84;98840.72;5067571;28;20055;-69
2022/05/12 08:41:59;;;;;;;4.78;1.20;;;;;;;20.07;72.56;98839.31;5067507;28;20025;-69
2022/05/12 08:44:25;;;;;;;7.47;1.45;;;;;;;21.70;67.20;98853.97;5067175;28;20036;-69
2022/05/12 08:46:57;;;;;;;4.65;1.25;;;;;;;22.78;61.26;98849.78;5067467;28;20029;-69
2022/05/12 08:49:28;;;;;;;5.18;1.77;;;;;;;22.85;62.97;98851.09;5067460;28;20074;-69
2022/05/12 08:52:16;;;;;;;3.25;1.00;;;;;;;23.06;61.86;98849.66;5067391;28;20039;-69
2022/05/12 08:54:50;;;;;;;1.55;0.90;;;;;;;23.11;60.08;98853.81;5067347;28;20029;-69
2022/05/12 08:57:28;;;;;;;2.97;1.15;;;;;;;22.43;61.90;98846.63;5067293;28;20025;-69
2022/05/12 08:59:54;;;;;;;3.35;1.02;;;;;;;22.03;62.51;98843.88;5067505;28;20021;-69
2022/05/12 09:02:31;;;;;;;5.82;1.60;;;;;;;22.04;62.42;98857.19;5067051;28;20097;-69
2022/05/12 09:05:18;;;;;;;4.68;1.08;;;;;;;22.14;60.70;98854.78;5066996;28;20071;-69
2022/05/12 09:07:50;;;;;;;1.75;1.23;;;;;;;21.92;60.84;98841.84;5067030;28;20403;-69
2022/05/12 09:10:45;;;;;;;2.88;1.10;;;;;;;22.25;61.05;98849.63;5066948;28;20032;-69
2022/05/12 09:13:30;;;;;;;4.70;1.38;;;;;;;21.68;61.87;98853.19;5067031;28;20016;-69
2022/05/12 09:16:14;;;;;;;3.42;1.30;;;;;;;21.54;62.62;98854.00;5066930;28;20328;-69
2022/05/12 09:18:41;;;;;;;7.07;1.23;;;;;;;21.33;62.33;98847.25;5066907;28;20336;-69
2022/05/12 09:21:13;;;;;;;3.63;0.90;;;;;;;22.07;60.98;98853.44;5067090;28;20308;-69
2022/05/12 09:23:38;;;;;;;2.42;1.48;;;;;;;22.70;59.42;98857.47;5066962;28;20024;-69
2022/05/12 09:26:32;;;;;;;3.60;0.95;;;;;;;22.56;58.74;98841.41;5066836;28;20252;-69
2022/05/12 09:29:15;;;;;;;3.28;1.10;;;;;;;23.88;56.47;98850.34;5066643;28;20325;-69
2022/05/12 09:31:44;;;;;;;5.78;1.08;;;;;;;23.46;57.32;98848.78;5066655;28;20253;-69
2022/05/12 09:34:34;;;;;;;4.63;1.35;;;;;;;23.92;55.18;98843.78;5066299;28;20067;-69
2022/05/12 09:37:21;;;;;;;3.15;1.00;;;;;;;23.85;53.82;98851.41;5066655;28;20024;-69
2022/05/12 09:39:52;;;;;;;2.30;1.02;;;;;;;24.24;54.88;98848.66;5066736;28;20397;-69
2022/05/12 09:42:27;;;;;;;1.90;0.73;;;;;;;24.35;54.37;98835.28;5066358;28;20025;-69
2022/05/12 09:45:05;;;;;;;5.35;1.40;;;;;;;25.24;51.59;98845.69;5066404;28;20253;-69
2022/05/12 09:47:32;;;;;;;4.68;1.02;;;;;;;25.08;53.45;98842.44;5066298;28;20220;-69
2022/05/12 09:50:17;;;;;;;3.22;1.00;;;;;;;24.97;51.90;98833.44;5066291;28;20028;-69
2022/05/12 09:52:57;;;;;;;3.78;1.45;;;;;;;25.34;54.09;98842.34;5066264;28;20021;-69
2022/05/12 09:55:30;;;;;;;3.50;0.80;;;;;;;24.31;53.00;98822.16;5066176;28;20044;-69
2022/05/12 09:58:26;;;;;;;3.53;1.10;;;;;;;23.79;54.10;98824.94;5066137;28;20032;-69
2022/05/12 10:01:23;;;;;;;5.28;1.00;;;;;;;23.52;56.42;98836.75;5066353;28;20016;-69
2022/05/12 10:07:53;;;;;;;6.70;1.10;;;;;;;22.88;58.33;98819.53;5084290;28;20284;-69
2022/05/12 10:10:08;;;;;;;4.00;0.98;;;;;;;22.57;59.77;98816.28;5084177;28;20086;-69
2022/05/12 10:12:40;;;;;;;6.43;1.38;;;;;;;22.52;59.09;98816.56;5070375;28;20325;-69
2022/05/12 10:15:23;;;;;;;4.95;1.48;;;;;;;22.28;59.72;98820.81;5066085;28;20016;-69
2022/05/12 10:18:28;;;;;;;2.47;1.10;;;;;;;22.95;58.39;98818.19;5065793;28;20032;-69
2022/05/12 10:20:56;;;;;;;3.38;0.95;;;;;;;22.80;58.49;98821.00;5065529;28;20353;-69
2022/05/12 10:23:29;;;;;;;2.42;1.05;;;;;;;22.68;61.23;98816.44;5065619;28;20028;-69
2022/05/12 10:26:04;;;;;;;3.72;0.73;;;;;;;22.67;60.25;98809.34;5065626;28;20028;-69
2022/05/12 10:28:52;;;;;;;2.75;0.90;;;;;;;23.00;59.09;98821.41;5065586;28;20087;-69
2022/05/12 10:31:25;;;;;;;8.63;1.15;;;;;;;23.07;60.12;98819.19;5065533;28;20320;-69
2022/05/12 10:33:53;;;;;;;3.28;0.85;;;;;;;23.42;57.75;98820.41;5065515;28;20025;-69
2022/05/12 10:36:49;;;;;;;4.50;1.42;;;;;;;22.78;58.93;98814.91;5065376;28;20025;-69
2022/05/12 10:39:25;;;;;;;4.65;1.13;;;;;;;22.69;58.27;98812.81;5065342;28;20048;-69
2022/05/12 10:42:02;;;;;;;2.63;0.88;;;;;;;22.93;59.88;98812.06;5065279;28;20020;-69
2022/05/12 10:45:00;;;;;;;5.95;1.00;;;;;;;23.03;59.64;98817.66;5065272;28;20052;-69
2022/05/12 10:47:45;;;;;;;2.58;0.85;;;;;;;22.93;62.19;98806.69;5064334;28;20017;-69
2022/05/12 10:50:33;;;;;;;5.00;1.20;;;;;;;22.53;58.84;98802.19;5065169;28;20021;-69
2022/05/12 10:53:32;;;;;;;4.20;1.20;;;;;;;22.12;61.29;98795.06;5065119;28;20339;-69
2022/05/12 10:56:25;;;;;;;4.25;1.50;;;;;;;21.94;61.11;98801.56;5065017;28;20058;-69
2022/05/12 10:58:55;;;;;;;3.78;0.90;;;;;;;21.68;62.59;98799.59;5064985;28;20021;-69
2022/05/12 11:01:32;;;;;;;5.15;1.30;;;;;;;21.55;63.82;98795.94;5065136;28;20025;-69
2022/05/12 11:04:09;;;;;;;2.17;1.17;;;;;;;22.22;61.83;98790.81;5064735;28;20033;-69
2022/05/12 11:06:46;;;;;;;2.78;0.85;;;;;;;22.29;60.94;98786.78;5064869;28;20025;-69
2022/05/12 11:09:29;;;;;;;4.30;1.25;;;;;;;22.67;61.04;98793.25;5064819;28;20025;-69
2022/05/12 11:11:59;;;;;;;3.58;1.10;;;;;;;22.38;61.04;98780.84;5064758;28;20021;-69
2022/05/12 11:14:31;;;;;;;2.15;0.88;;;;;;;22.64;61.06;98783.59;5064676;28;20029;-69
2022/05/12 11:17:09;;;;;;;6.57;1.30;;;;;;;23.05;61.37;98788.88;5064946;28;20025;-69
2022/05/12 11:19:36;;;;;;;3.35;0.98;;;;;;;23.79;61.06;98781.94;5064670;28;20374;-69
2022/05/12 11:22:20;;;;;;;1.70;0.93;;;;;;;23.76;60.03;98779.47;5064560;28;20084;-69
2022/05/12 11:25:02;;;;;;;3.00;1.00;;;;;;;23.37;57.36;98776.84;5064738;28;20040;-69
2022/05/12 11:27:39;;;;;;;3.45;1.13;;;;;;;23.05;58.89;98779.03;5064601;28;20024;-69
2022/05/12 11:30:23;;;;;;;2.05;0.80;;;;;;;23.18;60.37;98781.72;5064389;28;20039;-69
2022/05/12 11:33:27;;;;;;;2.83;0.90;;;;;;;22.96;60.46;98773.38;5064369;28;20225;-69
2022/05/12 11:35:54;;;;;;;1.50;1.05;;;;;;;22.77;59.65;98781.81;5064318;28;20209;-69
2022/05/12 11:38:37;;;;;;;3.60;1.27;;;;;;;23.11;58.90;98773.25;5064269;28;20039;-69
2022/05/12 11:41:04;;;;;;;3.05;1.20;;;;;;;23.21;59.38;98768.09;5064380;28;20049;-69
2022/05/12 11:46:31;;;;;;;2.47;1.05;;;;;;;22.88;58.53;98765.00;5064118;28;20027;-69
2022/05/12 11:49:22;;;;;;;2.72;0.95;;;;;;;22.86;61.44;98767.78;5064130;28;20039;-69
2022/05/12 11:52:05;;;;;;;3.30;1.10;;;;;;;23.03;61.31;98766.63;5064090;28;20028;-69
2022/05/12 11:54:32;;;;;;;1.83;1.10;;;;;;;23.47;62.87;98759.13;5064120;28;20025;-69
2022/05/12 11:56:59;;;;;;;3.85;0.90;;;;;;;23.74;60.41;98754.53;5063981;28;20024;-69
2022/05/12 11:59:33;;;;;;;2.20;1.15;;;;;;;23.50;60.23;98761.59;5063634;28;20092;-69
2022/05/12 12:02:01;;;;;;;3.88;1.08;;;;;;;23.57;59.16;98765.59;5063756;28;20036;-69
2022/05/12 12:04:39;;;;;;;4.82;1.10;;;;;;;23.43;59.70;98768.38;5063742;28;20248;-69
2022/05/12 12:07:13;;;;;;;1.90;1.20;;;;;;;23.33;60.42;98764.59;5064028;28;20083;-69